sensor_id;sensor_type;location;lat;lon;timestamp;pressure;altitude;pressure_sealevel;temperature
63009;BMP280;49099;28.428;-16.488;2022-08-01T00:00:19;98534.88;;;24.02
63009;BMP280;49099;28.428;-16.488;2022-08-01T00:02:46;98526.56;;;24.00
63009;BMP280;49099;28.428;-16.488;2022-08-01T00:05:14;98523.69;;;23.98
63009;BMP280;49099;28.428;-16.488;2022-08-01T00:07:41;98524.84;;;24.02
63009;BMP280;49099;28.428;-16.488;2022-08-01T00:10:11;98525.53;;;24.08
63009;BMP280;49099;28.428;-16.488;2022-08-01T00:12:40;98520.84;;;24.14
63009;BMP280;49099;28.428;-16.488;2022-08-01T00:15:09;98515.63;;;24.22
63009;BMP280;49099;28.428;-16.488;2022-08-01T00:17:36;98518.78;;;24.26
63009;BMP280;49099;28.428;-16.488;2022-08-01T00:20:05;98515.06;;;24.29
63009;BMP280;49099;28.428;-16.488;2022-08-01T00:22:34;98518.00;;;24.31
63009;BMP280;49099;28.428;-16.488;2022-08-01T00:25:02;98516.75;;;24.32
63009;BMP280;49099;28.428;-16.488;2022-08-01T00:27:30;98518.94;;;24.33
63009;BMP280;49099;28.428;-16.488;2022-08-01T00:30:03;98514.50;;;24.36
63009;BMP280;49099;28.428;-16.488;2022-08-01T00:32:42;98516.41;;;24.41
63009;BMP280;49099;28.428;-16.488;2022-08-01T00:35:09;98520.06;;;24.43
63009;BMP280;49099;28.428;-16.488;2022-08-01T00:37:37;98518.31;;;24.46
63009;BMP280;49099;28.428;-16.488;2022-08-01T00:40:05;98520.00;;;24.49
63009;BMP280;49099;28.428;-16.488;2022-08-01T00:42:32;98509.50;;;24.51
63009;BMP280;49099;28.428;-16.488;2022-08-01T00:45:00;98512.38;;;24.53
63009;BMP280;49099;28.428;-16.488;2022-08-01T00:47:27;98509.69;;;24.53
63009;BMP280;49099;28.428;-16.488;2022-08-01T00:49:54;98511.13;;;24.54
63009;BMP280;49099;28.428;-16.488;2022-08-01T00:52:21;98505.53;;;24.52
63009;BMP280;49099;28.428;-16.488;2022-08-01T00:54:48;98498.75;;;24.51
63009;BMP280;49099;28.428;-16.488;2022-08-01T00:57:15;98499.44;;;24.51
63009;BMP280;49099;28.428;-16.488;2022-08-01T01:00:04;98502.63;;;24.50
63009;BMP280;49099;28.428;-16.488;2022-08-01T01:02:32;98503.88;;;24.49
63009;BMP280;49099;28.428;-16.488;2022-08-01T01:04:59;98498.34;;;24.41
63009;BMP280;49099;28.428;-16.488;2022-08-01T01:08:07;98491.25;;;24.44
63009;BMP280;49099;28.428;-16.488;2022-08-01T01:11:25;98496.41;;;24.42
63009;BMP280;49099;28.428;-16.488;2022-08-01T01:13:51;98486.22;;;24.35
63009;BMP280;49099;28.428;-16.488;2022-08-01T01:16:21;98491.72;;;24.24
63009;BMP280;49099;28.428;-16.488;2022-08-01T01:18:54;98497.25;;;24.07
63009;BMP280;49099;28.428;-16.488;2022-08-01T01:27:01;98485.53;;;23.81
63009;BMP280;49099;28.428;-16.488;2022-08-01T01:29:35;98485.03;;;23.82
63009;BMP280;49099;28.428;-16.488;2022-08-01T01:32:32;98470.69;;;23.80
63009;BMP280;49099;28.428;-16.488;2022-08-01T01:35:08;98469.22;;;23.79
63009;BMP280;49099;28.428;-16.488;2022-08-01T01:37:38;98467.78;;;23.78
63009;BMP280;49099;28.428;-16.488;2022-08-01T01:40:07;98466.31;;;23.77
63009;BMP280;49099;28.428;-16.488;2022-08-01T01:42:37;98465.59;;;23.76
63009;BMP280;49099;28.428;-16.488;2022-08-01T01:45:05;98459.97;;;23.80
63009;BMP280;49099;28.428;-16.488;2022-08-01T01:47:34;98456.75;;;23.81
63009;BMP280;49099;28.428;-16.488;2022-08-01T01:50:03;98456.75;;;23.81
63009;BMP280;49099;28.428;-16.488;2022-08-01T01:52:32;98460.69;;;23.80
63009;BMP280;49099;28.428;-16.488;2022-08-01T01:55:01;98454.34;;;23.78
63009;BMP280;49099;28.428;-16.488;2022-08-01T01:57:30;98452.41;;;23.78
63009;BMP280;49099;28.428;-16.488;2022-08-01T02:00:03;98449.50;;;23.76
63009;BMP280;49099;28.428;-16.488;2022-08-01T02:02:36;98441.19;;;23.80
63009;BMP280;49099;28.428;-16.488;2022-08-01T02:05:05;98443.63;;;23.78
63009;BMP280;49099;28.428;-16.488;2022-08-01T02:07:34;98449.25;;;23.74
63009;BMP280;49099;28.428;-16.488;2022-08-01T02:10:03;98455.91;;;23.68
63009;BMP280;49099;28.428;-16.488;2022-08-01T02:12:35;98451.06;;;23.66
63009;BMP280;49099;28.428;-16.488;2022-08-01T02:15:04;98445.41;;;23.70
63009;BMP280;49099;28.428;-16.488;2022-08-01T02:17:37;98447.59;;;23.71
63009;BMP280;49099;28.428;-16.488;2022-08-01T02:20:05;98434.91;;;23.72
63009;BMP280;49099;28.428;-16.488;2022-08-01T02:22:41;98443.69;;;23.72
63009;BMP280;49099;28.428;-16.488;2022-08-01T02:25:15;98438.59;;;23.69
63009;BMP280;49099;28.428;-16.488;2022-08-01T02:28:15;98437.41;;;23.64
63009;BMP280;49099;28.428;-16.488;2022-08-01T02:30:47;98434.25;;;23.66
63009;BMP280;49099;28.428;-16.488;2022-08-01T02:33:17;98429.31;;;23.70
63009;BMP280;49099;28.428;-16.488;2022-08-01T02:35:50;98436.59;;;23.75
63009;BMP280;49099;28.428;-16.488;2022-08-01T02:38:46;98424.16;;;23.77
63009;BMP280;49099;28.428;-16.488;2022-08-01T02:41:20;98431.66;;;23.79
63009;BMP280;49099;28.428;-16.488;2022-08-01T02:43:53;98423.63;;;23.79
63009;BMP280;49099;28.428;-16.488;2022-08-01T02:46:36;98424.84;;;23.78
63009;BMP280;49099;28.428;-16.488;2022-08-01T02:49:06;98422.41;;;23.80
63009;BMP280;49099;28.428;-16.488;2022-08-01T02:51:36;98419.94;;;23.82
63009;BMP280;49099;28.428;-16.488;2022-08-01T02:54:06;98419.94;;;23.82
63009;BMP280;49099;28.428;-16.488;2022-08-01T02:56:34;98417.03;;;23.80
63009;BMP280;49099;28.428;-16.488;2022-08-01T02:59:10;98418.03;;;23.77
63009;BMP280;49099;28.428;-16.488;2022-08-01T03:01:58;98419.03;;;23.74
63009;BMP280;49099;28.428;-16.488;2022-08-01T03:04:28;98417.63;;;23.67
63009;BMP280;49099;28.428;-16.488;2022-08-01T03:06:57;98423.50;;;23.66
63009;BMP280;49099;28.428;-16.488;2022-08-01T03:09:26;98428.88;;;23.66
63009;BMP280;49099;28.428;-16.488;2022-08-01T03:11:56;98415.97;;;23.64
63009;BMP280;49099;28.428;-16.488;2022-08-01T03:14:25;98431.13;;;23.56
63009;BMP280;49099;28.428;-16.488;2022-08-01T03:16:54;98435.78;;;23.56
63009;BMP280;49099;28.428;-16.488;2022-08-01T03:19:24;98431.66;;;23.55
63009;BMP280;49099;28.428;-16.488;2022-08-01T03:21:54;98434.25;;;23.60
63009;BMP280;49099;28.428;-16.488;2022-08-01T03:24:23;98433.03;;;23.67
63009;BMP280;49099;28.428;-16.488;2022-08-01T03:26:51;98427.88;;;23.69
63009;BMP280;49099;28.428;-16.488;2022-08-01T03:29:22;98423.50;;;23.66
63009;BMP280;49099;28.428;-16.488;2022-08-01T03:31:51;98423.81;;;23.62
63009;BMP280;49099;28.428;-16.488;2022-08-01T03:34:19;98417.72;;;23.62
63009;BMP280;49099;28.428;-16.488;2022-08-01T03:36:59;98424.06;;;23.59
63009;BMP280;49099;28.428;-16.488;2022-08-01T03:39:31;98421.69;;;23.50
63009;BMP280;49099;28.428;-16.488;2022-08-01T03:42:05;98414.19;;;23.48
63009;BMP280;49099;28.428;-16.488;2022-08-01T03:44:35;98416.03;;;23.53
63009;BMP280;49099;28.428;-16.488;2022-08-01T03:47:07;98410.41;;;23.57
63009;BMP280;49099;28.428;-16.488;2022-08-01T03:49:40;98417.53;;;23.54
63009;BMP280;49099;28.428;-16.488;2022-08-01T03:52:09;98423.88;;;23.51
63009;BMP280;49099;28.428;-16.488;2022-08-01T03:54:45;98411.75;;;23.45
63009;BMP280;49099;28.428;-16.488;2022-08-01T03:57:14;98410.78;;;23.42
63009;BMP280;49099;28.428;-16.488;2022-08-01T04:00:04;98411.53;;;23.43
63009;BMP280;49099;28.428;-16.488;2022-08-01T04:02:35;98407.88;;;23.40
63009;BMP280;49099;28.428;-16.488;2022-08-01T04:05:03;98417.13;;;23.45
63009;BMP280;49099;28.428;-16.488;2022-08-01T04:07:32;98417.31;;;23.47
63009;BMP280;49099;28.428;-16.488;2022-08-01T04:09:59;98418.81;;;23.48
63009;BMP280;49099;28.428;-16.488;2022-08-01T04:12:26;98415.38;;;23.47
63009;BMP280;49099;28.428;-16.488;2022-08-01T04:14:54;98418.56;;;23.46
63009;BMP280;49099;28.428;-16.488;2022-08-01T04:17:21;98427.84;;;23.45
63009;BMP280;49099;28.428;-16.488;2022-08-01T04:19:48;98424.16;;;23.48
63009;BMP280;49099;28.428;-16.488;2022-08-01T04:22:15;98422.94;;;23.49
63009;BMP280;49099;28.428;-16.488;2022-08-01T04:24:46;98418.72;;;23.53
63009;BMP280;49099;28.428;-16.488;2022-08-01T04:27:26;98419.91;;;23.58
63009;BMP280;49099;28.428;-16.488;2022-08-01T04:30:20;98416.97;;;23.61
63009;BMP280;49099;28.428;-16.488;2022-08-01T04:32:51;98424.28;;;23.61
63009;BMP280;49099;28.428;-16.488;2022-08-01T04:35:19;98426.22;;;23.60
63009;BMP280;49099;28.428;-16.488;2022-08-01T04:38:09;98420.41;;;23.56
63009;BMP280;49099;28.428;-16.488;2022-08-01T04:40:37;98422.88;;;23.54
63009;BMP280;49099;28.428;-16.488;2022-08-01T04:43:04;98419.25;;;23.52
63009;BMP280;49099;28.428;-16.488;2022-08-01T04:45:33;98414.88;;;23.49
63009;BMP280;49099;28.428;-16.488;2022-08-01T04:48:01;98416.34;;;23.50
63009;BMP280;49099;28.428;-16.488;2022-08-01T04:50:28;98415.59;;;23.49
63009;BMP280;49099;28.428;-16.488;2022-08-01T04:52:55;98413.44;;;23.48
63009;BMP280;49099;28.428;-16.488;2022-08-01T04:55:23;98413.69;;;23.44
63009;BMP280;49099;28.428;-16.488;2022-08-01T04:57:50;98415.69;;;23.44
63009;BMP280;49099;28.428;-16.488;2022-08-01T05:00:17;98415.69;;;23.44
63009;BMP280;49099;28.428;-16.488;2022-08-01T05:02:44;98415.69;;;23.44
63009;BMP280;49099;28.428;-16.488;2022-08-01T05:05:12;98422.69;;;23.47
63009;BMP280;49099;28.428;-16.488;2022-08-01T05:07:39;98426.59;;;23.46
63009;BMP280;49099;28.428;-16.488;2022-08-01T05:10:11;98432.00;;;23.40
63009;BMP280;49099;28.428;-16.488;2022-08-01T05:12:38;98427.88;;;23.39
63009;BMP280;49099;28.428;-16.488;2022-08-01T05:15:06;98428.38;;;23.38
63009;BMP280;49099;28.428;-16.488;2022-08-01T05:17:40;98434.97;;;23.37
63009;BMP280;49099;28.428;-16.488;2022-08-01T05:20:10;98436.44;;;23.38
63009;BMP280;49099;28.428;-16.488;2022-08-01T05:22:39;98435.25;;;23.33
63009;BMP280;49099;28.428;-16.488;2022-08-01T05:25:06;98434.50;;;23.33
63009;BMP280;49099;28.428;-16.488;2022-08-01T05:27:34;98432.06;;;23.35
63009;BMP280;49099;28.428;-16.488;2022-08-01T05:30:08;98434.25;;;23.36
63009;BMP280;49099;28.428;-16.488;2022-08-01T05:32:35;98432.75;;;23.41
63009;BMP280;49099;28.428;-16.488;2022-08-01T05:35:03;98435.44;;;23.41
63009;BMP280;49099;28.428;-16.488;2022-08-01T05:37:30;98432.97;;;23.43
63009;BMP280;49099;28.428;-16.488;2022-08-01T05:39:57;98422.75;;;23.41
63009;BMP280;49099;28.428;-16.488;2022-08-01T05:42:24;98426.16;;;23.42
63009;BMP280;49099;28.428;-16.488;2022-08-01T05:44:52;98425.44;;;23.41
63009;BMP280;49099;28.428;-16.488;2022-08-01T05:47:19;98423.03;;;23.38
63009;BMP280;49099;28.428;-16.488;2022-08-01T05:49:46;98422.78;;;23.36
63009;BMP280;49099;28.428;-16.488;2022-08-01T05:52:13;98422.06;;;23.35
63009;BMP280;49099;28.428;-16.488;2022-08-01T05:54:41;98424.25;;;23.37
63009;BMP280;49099;28.428;-16.488;2022-08-01T05:57:08;98429.34;;;23.40
63009;BMP280;49099;28.428;-16.488;2022-08-01T05:59:36;98433.69;;;23.43
63009;BMP280;49099;28.428;-16.488;2022-08-01T06:02:03;98435.63;;;23.48
63009;BMP280;49099;28.428;-16.488;2022-08-01T06:04:31;98436.78;;;23.53
63009;BMP280;49099;28.428;-16.488;2022-08-01T06:06:58;98430.16;;;23.59
63009;BMP280;49099;28.428;-16.488;2022-08-01T06:09:25;98426.19;;;23.66
63009;BMP280;49099;28.428;-16.488;2022-08-01T06:11:53;98427.59;;;23.72
63009;BMP280;49099;28.428;-16.488;2022-08-01T06:14:20;98423.19;;;23.75
63009;BMP280;49099;28.428;-16.488;2022-08-01T06:16:47;98420.22;;;23.78
63009;BMP280;49099;28.428;-16.488;2022-08-01T06:19:14;98422.63;;;23.82
63009;BMP280;49099;28.428;-16.488;2022-08-01T06:21:41;98426.28;;;23.84
63009;BMP280;49099;28.428;-16.488;2022-08-01T06:24:08;98430.84;;;23.89
63009;BMP280;49099;28.428;-16.488;2022-08-01T06:26:36;98429.34;;;23.94
63009;BMP280;49099;28.428;-16.488;2022-08-01T06:29:03;98428.84;;;23.95
63009;BMP280;49099;28.428;-16.488;2022-08-01T06:31:31;98439.78;;;23.97
63009;BMP280;49099;28.428;-16.488;2022-08-01T06:33:59;98433.91;;;23.99
63009;BMP280;49099;28.428;-16.488;2022-08-01T06:36:26;98435.16;;;23.98
63009;BMP280;49099;28.428;-16.488;2022-08-01T06:38:54;98439.56;;;23.95
63009;BMP280;49099;28.428;-16.488;2022-08-01T06:41:21;98438.59;;;23.93
63009;BMP280;49099;28.428;-16.488;2022-08-01T06:43:48;98438.84;;;23.95
63009;BMP280;49099;28.428;-16.488;2022-08-01T06:46:16;98440.47;;;24.03
63009;BMP280;49099;28.428;-16.488;2022-08-01T06:48:43;98442.84;;;24.07
63009;BMP280;49099;28.428;-16.488;2022-08-01T06:51:10;98455.50;;;24.12
63009;BMP280;49099;28.428;-16.488;2022-08-01T06:53:40;98450.88;;;24.12
63009;BMP280;49099;28.428;-16.488;2022-08-01T06:56:09;98447.94;;;24.10
63009;BMP280;49099;28.428;-16.488;2022-08-01T06:58:37;98459.88;;;24.09
63009;BMP280;49099;28.428;-16.488;2022-08-01T07:01:04;98460.34;;;24.13
63009;BMP280;49099;28.428;-16.488;2022-08-01T07:03:35;98458.63;;;24.16
63009;BMP280;49099;28.428;-16.488;2022-08-01T07:06:24;98466.00;;;24.10
63009;BMP280;49099;28.428;-16.488;2022-08-01T07:08:52;98464.75;;;24.11
63009;BMP280;49099;28.428;-16.488;2022-08-01T07:11:21;98469.34;;;24.16
63009;BMP280;49099;28.428;-16.488;2022-08-01T07:13:48;98469.78;;;24.20
63009;BMP280;49099;28.428;-16.488;2022-08-01T07:16:16;98472.69;;;24.22
63009;BMP280;49099;28.428;-16.488;2022-08-01T07:18:43;98470.25;;;24.24
63009;BMP280;49099;28.428;-16.488;2022-08-01T07:21:11;98476.78;;;24.28
63009;BMP280;49099;28.428;-16.488;2022-08-01T07:23:58;98474.56;;;24.27
63009;BMP280;49099;28.428;-16.488;2022-08-01T07:26:25;98474.31;;;24.30
63009;BMP280;49099;28.428;-16.488;2022-08-01T07:28:54;98474.25;;;24.36
63009;BMP280;49099;28.428;-16.488;2022-08-01T07:31:21;98476.66;;;24.39
63009;BMP280;49099;28.428;-16.488;2022-08-01T07:33:52;98471.72;;;24.43
63009;BMP280;49099;28.428;-16.488;2022-08-01T07:36:19;98471.28;;;24.39
63009;BMP280;49099;28.428;-16.488;2022-08-01T07:38:47;98467.09;;;24.44
63009;BMP280;49099;28.428;-16.488;2022-08-01T07:41:14;98474.34;;;24.49
63009;BMP280;49099;28.428;-16.488;2022-08-01T07:43:42;98475.78;;;24.50
63009;BMP280;49099;28.428;-16.488;2022-08-01T07:46:21;98482.63;;;24.51
63009;BMP280;49099;28.428;-16.488;2022-08-01T07:48:48;98476.81;;;24.47
63009;BMP280;49099;28.428;-16.488;2022-08-01T07:51:16;98476.84;;;24.41
63009;BMP280;49099;28.428;-16.488;2022-08-01T07:53:43;98482.03;;;24.39
63009;BMP280;49099;28.428;-16.488;2022-08-01T07:56:10;98484.91;;;24.41
63009;BMP280;49099;28.428;-16.488;2022-08-01T07:58:37;98490.00;;;24.45
63009;BMP280;49099;28.428;-16.488;2022-08-01T08:01:05;98489.22;;;24.50
63009;BMP280;49099;28.428;-16.488;2022-08-01T08:03:32;98486.59;;;24.44
63009;BMP280;49099;28.428;-16.488;2022-08-01T08:05:59;98485.66;;;24.42
63009;BMP280;49099;28.428;-16.488;2022-08-01T08:08:27;98492.69;;;24.45
63009;BMP280;49099;28.428;-16.488;2022-08-01T08:10:54;98494.88;;;24.46
63009;BMP280;49099;28.428;-16.488;2022-08-01T08:13:21;98488.97;;;24.48
63009;BMP280;49099;28.428;-16.488;2022-08-01T08:15:48;98491.66;;;24.48
63009;BMP280;49099;28.428;-16.488;2022-08-01T08:18:16;98486.97;;;24.54
63009;BMP280;49099;28.428;-16.488;2022-08-01T08:20:43;98494.22;;;24.59
63009;BMP280;49099;28.428;-16.488;2022-08-01T08:23:11;98488.41;;;24.55
63009;BMP280;49099;28.428;-16.488;2022-08-01T08:26:12;98480.34;;;24.55
63009;BMP280;49099;28.428;-16.488;2022-08-01T08:28:39;98477.66;;;24.55
63009;BMP280;49099;28.428;-16.488;2022-08-01T08:31:07;98468.16;;;24.54
63009;BMP280;49099;28.428;-16.488;2022-08-01T08:33:51;98473.31;;;24.52
63009;BMP280;49099;28.428;-16.488;2022-08-01T08:36:18;98472.31;;;24.55
63009;BMP280;49099;28.428;-16.488;2022-08-01T08:38:45;98475.53;;;24.53
63009;BMP280;49099;28.428;-16.488;2022-08-01T08:41:12;98472.88;;;24.48
63009;BMP280;49099;28.428;-16.488;2022-08-01T08:43:46;98473.88;;;24.45
63009;BMP280;49099;28.428;-16.488;2022-08-01T08:46:14;98474.91;;;24.42
63009;BMP280;49099;28.428;-16.488;2022-08-01T08:48:42;98469.81;;;24.38
63009;BMP280;49099;28.428;-16.488;2022-08-01T08:51:10;98475.47;;;24.35
63009;BMP280;49099;28.428;-16.488;2022-08-01T08:53:41;98468.44;;;24.32
63009;BMP280;49099;28.428;-16.488;2022-08-01T08:56:12;98474.31;;;24.30
63009;BMP280;49099;28.428;-16.488;2022-08-01T08:58:41;98465.75;;;24.32
63009;BMP280;49099;28.428;-16.488;2022-08-01T09:01:11;98473.75;;;24.37
63009;BMP280;49099;28.428;-16.488;2022-08-01T09:03:40;98477.41;;;24.40
63009;BMP280;49099;28.428;-16.488;2022-08-01T09:06:07;98472.22;;;24.42
63009;BMP280;49099;28.428;-16.488;2022-08-01T09:08:35;98478.25;;;24.48
63009;BMP280;49099;28.428;-16.488;2022-08-01T09:11:03;98479.41;;;24.52
63009;BMP280;49099;28.428;-16.488;2022-08-01T09:13:30;98478.41;;;24.55
63009;BMP280;49099;28.428;-16.488;2022-08-01T09:15:57;98485.38;;;24.64
63009;BMP280;49099;28.428;-16.488;2022-08-01T09:18:36;98484.06;;;24.70
63009;BMP280;49099;28.428;-16.488;2022-08-01T09:23:33;98491.06;;;24.79
63009;BMP280;49099;28.428;-16.488;2022-08-01T09:26:01;98490.00;;;24.82
63009;BMP280;49099;28.428;-16.488;2022-08-01T09:28:30;98490.69;;;24.88
63009;BMP280;49099;28.428;-16.488;2022-08-01T09:30:57;98494.81;;;24.89
63009;BMP280;49099;28.428;-16.488;2022-08-01T09:33:25;98507.91;;;24.98
63009;BMP280;49099;28.428;-16.488;2022-08-01T09:35:55;98504.63;;;25.05
63009;BMP280;49099;28.428;-16.488;2022-08-01T09:38:24;98503.38;;;25.06
63009;BMP280;49099;28.428;-16.488;2022-08-01T09:40:57;98507.72;;;25.09
63009;BMP280;49099;28.428;-16.488;2022-08-01T09:43:26;98508.69;;;25.11
63009;BMP280;49099;28.428;-16.488;2022-08-01T09:45:55;98501.84;;;25.10
63009;BMP280;49099;28.428;-16.488;2022-08-01T09:48:24;98496.69;;;25.12
63009;BMP280;49099;28.428;-16.488;2022-08-01T09:50:57;98505.72;;;25.15
63009;BMP280;49099;28.428;-16.488;2022-08-01T09:53:46;98502.34;;;25.09
63009;BMP280;49099;28.428;-16.488;2022-08-01T09:56:20;98503.31;;;25.11
63009;BMP280;49099;28.428;-16.488;2022-08-01T09:58:58;98500.34;;;25.15
63009;BMP280;49099;28.428;-16.488;2022-08-01T10:01:49;98492.28;;;25.15
63009;BMP280;49099;28.428;-16.488;2022-08-01T10:04:19;98491.31;;;25.12
63009;BMP280;49099;28.428;-16.488;2022-08-01T10:06:48;98496.97;;;25.09
63009;BMP280;49099;28.428;-16.488;2022-08-01T10:09:39;98500.69;;;25.06
63009;BMP280;49099;28.428;-16.488;2022-08-01T10:12:07;98506.25;;;24.95
63009;BMP280;49099;28.428;-16.488;2022-08-01T10:14:42;98508.63;;;24.80
63009;BMP280;49099;28.428;-16.488;2022-08-01T10:17:13;98516.03;;;24.74
63009;BMP280;49099;28.428;-16.488;2022-08-01T10:19:45;98508.81;;;24.82
63009;BMP280;49099;28.428;-16.488;2022-08-01T10:22:13;98508.03;;;24.87
63009;BMP280;49099;28.428;-16.488;2022-08-01T10:24:45;98510.94;;;24.89
63009;BMP280;49099;28.428;-16.488;2022-08-01T10:27:16;98510.34;;;24.96
63009;BMP280;49099;28.428;-16.488;2022-08-01T10:30:03;98510.06;;;24.99
63009;BMP280;49099;28.428;-16.488;2022-08-01T10:32:49;98514.13;;;25.06
63009;BMP280;49099;28.428;-16.488;2022-08-01T10:35:17;98510.94;;;25.07
63009;BMP280;49099;28.428;-16.488;2022-08-01T10:38:05;98510.34;;;25.14
63009;BMP280;49099;28.428;-16.488;2022-08-01T10:40:40;98498.69;;;25.25
63009;BMP280;49099;28.428;-16.488;2022-08-01T10:43:14;98501.38;;;25.25
63009;BMP280;49099;28.428;-16.488;2022-08-01T10:45:48;98506.53;;;25.23
63009;BMP280;49099;28.428;-16.488;2022-08-01T10:48:24;98504.50;;;25.29
63009;BMP280;49099;28.428;-16.488;2022-08-01T10:50:58;98502.47;;;25.35
63009;BMP280;49099;28.428;-16.488;2022-08-01T10:53:27;98507.97;;;25.42
63009;BMP280;49099;28.428;-16.488;2022-08-01T10:58:38;98507.44;;;25.44
63009;BMP280;49099;28.428;-16.488;2022-08-01T11:01:16;98509.13;;;25.47
63009;BMP280;49099;28.428;-16.488;2022-08-01T11:11:31;98513.09;;;25.59
63009;BMP280;49099;28.428;-16.488;2022-08-01T11:14:04;98519.09;;;25.65
63009;BMP280;49099;28.428;-16.488;2022-08-01T11:16:40;98525.00;;;25.76
63009;BMP280;49099;28.428;-16.488;2022-08-01T11:19:08;98526.16;;;25.81
63009;BMP280;49099;28.428;-16.488;2022-08-01T11:27:30;98526.28;;;25.88
63009;BMP280;49099;28.428;-16.488;2022-08-01T11:32:56;98524.22;;;25.82
63009;BMP280;49099;28.428;-16.488;2022-08-01T11:35:37;98521.09;;;25.77
63009;BMP280;49099;28.428;-16.488;2022-08-01T11:38:25;98523.69;;;25.83
63009;BMP280;49099;28.428;-16.488;2022-08-01T11:41:14;98518.91;;;25.89
63009;BMP280;49099;28.428;-16.488;2022-08-01T11:44:04;98522.22;;;25.82
63009;BMP280;49099;28.428;-16.488;2022-08-01T11:52:18;98512.09;;;25.75
63009;BMP280;49099;28.428;-16.488;2022-08-01T11:55:04;98517.47;;;25.75
63009;BMP280;49099;28.428;-16.488;2022-08-01T11:57:36;98502.16;;;25.83
63009;BMP280;49099;28.428;-16.488;2022-08-01T12:00:12;98508.28;;;25.83
63009;BMP280;49099;28.428;-16.488;2022-08-01T12:02:43;98509.72;;;25.84
63009;BMP280;49099;28.428;-16.488;2022-08-01T12:05:16;98500.69;;;25.82
63009;BMP280;49099;28.428;-16.488;2022-08-01T12:07:51;98505.66;;;25.78
63009;BMP280;49099;28.428;-16.488;2022-08-01T12:10:20;98504.94;;;25.77
63009;BMP280;49099;28.428;-16.488;2022-08-01T12:12:50;98512.19;;;25.82
63009;BMP280;49099;28.428;-16.488;2022-08-01T12:15:21;98511.28;;;25.93
63009;BMP280;49099;28.428;-16.488;2022-08-01T12:17:51;98504.44;;;25.92
63009;BMP280;49099;28.428;-16.488;2022-08-01T12:20:29;98503.41;;;25.95
63009;BMP280;49099;28.428;-16.488;2022-08-01T12:22:59;98504.75;;;26.02
63009;BMP280;49099;28.428;-16.488;2022-08-01T12:25:27;98503.63;;;26.10
63009;BMP280;49099;28.428;-16.488;2022-08-01T12:27:58;98506.94;;;26.16
63009;BMP280;49099;28.428;-16.488;2022-08-01T12:30:25;98515.44;;;26.20
63009;BMP280;49099;28.428;-16.488;2022-08-01T12:32:54;98505.28;;;26.26
63009;BMP280;49099;28.428;-16.488;2022-08-01T12:35:23;98512.50;;;26.31
63009;BMP280;49099;28.428;-16.488;2022-08-01T12:37:53;98506.59;;;26.33
63009;BMP280;49099;28.428;-16.488;2022-08-01T12:40:23;98513.34;;;26.39
63009;BMP280;49099;28.428;-16.488;2022-08-01T12:42:53;98503.38;;;26.47
63009;BMP280;49099;28.428;-16.488;2022-08-01T12:45:27;98512.28;;;26.55
63009;BMP280;49099;28.428;-16.488;2022-08-01T12:47:54;98500.84;;;26.62
63009;BMP280;49099;28.428;-16.488;2022-08-01T12:50:23;98493.19;;;26.66
63009;BMP280;49099;28.428;-16.488;2022-08-01T12:52:51;98501.47;;;26.68
63009;BMP280;49099;28.428;-16.488;2022-08-01T12:55:23;98502.72;;;26.67
63009;BMP280;49099;28.428;-16.488;2022-08-01T12:58:08;98498.06;;;26.68
63009;BMP280;49099;28.428;-16.488;2022-08-01T13:00:43;98503.34;;;26.73
63009;BMP280;49099;28.428;-16.488;2022-08-01T13:05:49;98505.16;;;26.78
63009;BMP280;49099;28.428;-16.488;2022-08-01T13:08:24;98507.66;;;26.76
63009;BMP280;49099;28.428;-16.488;2022-08-01T13:11:04;98496.16;;;26.76
63009;BMP280;49099;28.428;-16.488;2022-08-01T13:13:44;98507.56;;;26.69
63009;BMP280;49099;28.428;-16.488;2022-08-01T13:16:16;98514.00;;;26.66
63009;BMP280;49099;28.428;-16.488;2022-08-01T13:19:03;98503.16;;;26.58
63009;BMP280;49099;28.428;-16.488;2022-08-01T13:21:31;98510.31;;;26.56
63009;BMP280;49099;28.428;-16.488;2022-08-01T13:24:23;98507.00;;;26.50
63009;BMP280;49099;28.428;-16.488;2022-08-01T13:27:01;98509.16;;;26.51
63009;BMP280;49099;28.428;-16.488;2022-08-01T13:29:36;98498.88;;;26.63
63009;BMP280;49099;28.428;-16.488;2022-08-01T13:32:20;98488.53;;;26.67
63009;BMP280;49099;28.428;-16.488;2022-08-01T13:35:08;98499.38;;;26.74
63009;BMP280;49099;28.428;-16.488;2022-08-01T13:37:36;98495.06;;;26.71
63009;BMP280;49099;28.428;-16.488;2022-08-01T13:40:06;98501.09;;;26.64
63009;BMP280;49099;28.428;-16.488;2022-08-01T13:42:34;98493.31;;;26.61
63009;BMP280;49099;28.428;-16.488;2022-08-01T13:45:03;98503.69;;;26.44
63009;BMP280;49099;28.428;-16.488;2022-08-01T13:47:41;98489.75;;;26.32
63009;BMP280;49099;28.428;-16.488;2022-08-01T13:50:28;98493.34;;;26.35
63009;BMP280;49099;28.428;-16.488;2022-08-01T13:52:56;98494.91;;;26.30
63009;BMP280;49099;28.428;-16.488;2022-08-01T13:55:23;98491.56;;;26.37
63009;BMP280;49099;28.428;-16.488;2022-08-01T13:57:50;98487.84;;;26.40
63009;BMP280;49099;28.428;-16.488;2022-08-01T14:00:17;98487.03;;;26.45
63009;BMP280;49099;28.428;-16.488;2022-08-01T14:02:45;98484.72;;;26.49
63009;BMP280;49099;28.428;-16.488;2022-08-01T14:05:12;98487.09;;;26.53
63009;BMP280;49099;28.428;-16.488;2022-08-01T14:07:39;98482.72;;;26.63
63009;BMP280;49099;28.428;-16.488;2022-08-01T14:10:07;98489.75;;;26.66
63009;BMP280;49099;28.428;-16.488;2022-08-01T14:12:49;98488.00;;;26.68
63009;BMP280;49099;28.428;-16.488;2022-08-01T14:15:17;98482.91;;;26.78
63009;BMP280;49099;28.428;-16.488;2022-08-01T14:18:06;98488.13;;;26.96
63009;BMP280;49099;28.428;-16.488;2022-08-01T14:20:35;98489.03;;;26.99
63009;BMP280;49099;28.428;-16.488;2022-08-01T14:23:03;98488.13;;;26.96
63009;BMP280;49099;28.428;-16.488;2022-08-01T14:25:35;98484.53;;;27.01
63009;BMP280;49099;28.428;-16.488;2022-08-01T14:28:23;98485.28;;;27.02
63009;BMP280;49099;28.428;-16.488;2022-08-01T14:30:51;98485.69;;;27.06
63009;BMP280;49099;28.428;-16.488;2022-08-01T14:33:18;98480.50;;;27.08
63009;BMP280;49099;28.428;-16.488;2022-08-01T14:35:45;98482.00;;;27.16
63009;BMP280;49099;28.428;-16.488;2022-08-01T14:38:32;98477.84;;;27.15
63009;BMP280;49099;28.428;-16.488;2022-08-01T14:41:00;98476.81;;;27.18
63009;BMP280;49099;28.428;-16.488;2022-08-01T14:43:30;98474.44;;;27.35